createdAt,value
2022-09-28T00:01:31.783Z,0.38
2022-09-28T00:03:58.278Z,0.39
2022-09-28T00:06:24.649Z,0.41
2022-09-28T00:08:51.048Z,0.32
2022-09-28T00:11:17.455Z,0.36
2022-09-28T00:13:43.825Z,0.35
2022-09-28T00:16:10.249Z,0.44
2022-09-28T00:18:36.651Z,0.41
2022-09-28T00:21:02.986Z,0.38
2022-09-28T00:23:29.349Z,0.33
2022-09-28T00:25:55.708Z,0.40
2022-09-28T00:28:22.060Z,0.42
2022-09-28T00:30:48.419Z,0.43
2022-09-28T00:33:14.767Z,0.37
2022-09-28T00:35:41.132Z,0.35
2022-09-28T00:38:07.485Z,0.38
2022-09-28T00:40:33.901Z,0.32
2022-09-28T00:43:00.265Z,0.42
2022-09-28T00:45:26.675Z,0.58
2022-09-28T00:47:53.109Z,0.34
2022-09-28T00:50:19.451Z,0.39
2022-09-28T00:52:45.803Z,0.34
2022-09-28T00:55:12.171Z,0.40
2022-09-28T00:57:38.500Z,0.38
2022-09-28T01:00:04.825Z,0.30
2022-09-28T01:02:31.342Z,0.29
2022-09-28T01:04:57.737Z,0.33
2022-09-28T01:07:24.100Z,0.34
2022-09-28T01:09:50.459Z,0.38
2022-09-28T01:12:16.800Z,0.41
2022-09-28T01:14:43.134Z,0.39
2022-09-28T01:17:09.503Z,0.44
2022-09-28T01:19:35.881Z,0.42
2022-09-28T01:22:02.262Z,0.34
2022-09-28T01:24:28.611Z,0.38
2022-09-28T01:26:54.973Z,0.48
2022-09-28T01:29:21.322Z,0.43
2022-09-28T01:31:47.734Z,0.42
2022-09-28T01:34:14.127Z,0.37
2022-09-28T01:36:40.455Z,0.36
2022-09-28T01:39:09.235Z,0.46
2022-09-28T01:41:35.560Z,0.43
2022-09-28T01:44:01.937Z,0.38
2022-09-28T01:46:28.320Z,0.40
2022-09-28T01:48:54.671Z,0.33
2022-09-28T01:51:21.042Z,0.37
2022-09-28T01:53:47.435Z,0.38
2022-09-28T01:56:13.788Z,0.38
2022-09-28T01:58:40.128Z,0.34
2022-09-28T02:01:06.647Z,0.35
2022-09-28T02:03:33.060Z,0.42
2022-09-28T02:05:59.410Z,0.39
2022-09-28T02:08:25.885Z,0.36
2022-09-28T02:10:52.281Z,0.38
2022-09-28T02:13:18.636Z,0.42
2022-09-28T02:15:45.000Z,0.39
2022-09-28T02:18:11.330Z,0.46
2022-09-28T02:20:37.687Z,0.33
2022-09-28T02:23:04.156Z,0.44
2022-09-28T02:25:30.505Z,0.35
2022-09-28T02:27:56.856Z,0.40
2022-09-28T02:30:23.329Z,0.40
2022-09-28T02:32:49.703Z,0.39
2022-09-28T02:35:16.036Z,0.35
2022-09-28T02:37:42.421Z,0.39
2022-09-28T02:40:08.756Z,0.44
2022-09-28T02:42:35.106Z,0.42
2022-09-28T02:45:01.571Z,0.33
2022-09-28T02:47:27.922Z,0.35
2022-09-28T02:49:54.267Z,0.39
2022-09-28T02:52:20.749Z,0.35
2022-09-28T02:54:47.202Z,0.30
2022-09-28T02:57:13.571Z,0.38
2022-09-28T02:59:40.025Z,0.33
2022-09-28T03:02:06.497Z,0.35
2022-09-28T03:04:32.883Z,0.36
2022-09-28T03:06:59.284Z,0.37
2022-09-28T03:09:26.111Z,0.35
2022-09-28T03:11:52.467Z,0.43
2022-09-28T03:14:18.955Z,0.33
2022-09-28T03:16:45.349Z,0.40
2022-09-28T03:19:11.706Z,0.44
2022-09-28T03:21:38.080Z,0.49
2022-09-28T03:24:04.464Z,0.39
2022-09-28T03:26:30.805Z,0.49
2022-09-28T03:28:57.299Z,0.37
2022-09-28T03:31:23.703Z,0.40
2022-09-28T03:33:50.101Z,0.39
2022-09-28T03:36:16.488Z,0.31
2022-09-28T03:38:42.814Z,0.29
2022-09-28T03:41:09.157Z,0.28
2022-09-28T03:43:35.534Z,0.30
2022-09-28T03:46:01.990Z,0.28
2022-09-28T03:48:32.082Z,0.40
2022-09-28T03:50:59.222Z,0.28
2022-09-28T03:53:25.579Z,0.34
2022-09-28T03:55:51.938Z,0.36
2022-09-28T03:58:18.425Z,0.39
2022-09-28T04:00:44.808Z,0.42
2022-09-28T04:03:11.170Z,0.42
2022-09-28T04:05:37.653Z,0.34
2022-09-28T04:08:03.988Z,0.42
2022-09-28T04:10:30.342Z,0.37
2022-09-28T04:12:56.763Z,0.50
2022-09-28T04:15:23.124Z,0.41
2022-09-28T04:17:49.483Z,0.44
2022-09-28T04:20:15.845Z,0.36
2022-09-28T04:22:42.191Z,0.46
2022-09-28T04:25:08.557Z,0.44
2022-09-28T04:27:35.035Z,0.51
2022-09-28T04:30:01.324Z,0.41
2022-09-28T04:32:27.677Z,0.28
2022-09-28T04:34:54.147Z,0.38
2022-09-28T04:37:20.509Z,0.35
2022-09-28T04:39:48.524Z,0.29
2022-09-28T04:42:15.151Z,0.34
2022-09-28T04:44:41.532Z,0.30
2022-09-28T04:47:07.886Z,0.34
2022-09-28T04:49:34.847Z,0.34
2022-09-28T04:52:01.204Z,0.26
2022-09-28T04:54:27.556Z,0.33
2022-09-28T04:56:53.967Z,0.29
2022-09-28T04:59:20.308Z,0.29
2022-09-28T05:01:46.647Z,0.25
2022-09-28T05:04:13.035Z,0.27
2022-09-28T05:06:39.385Z,0.32
2022-09-28T05:09:05.739Z,0.32
2022-09-28T05:11:32.131Z,0.29
2022-09-28T05:13:58.513Z,0.29
2022-09-28T05:16:24.898Z,0.28
2022-09-28T05:18:51.307Z,0.37
2022-09-28T05:21:17.679Z,0.34
2022-09-28T05:23:44.010Z,0.36
2022-09-28T05:26:10.473Z,0.31
2022-09-28T05:28:36.821Z,0.34
2022-09-28T05:31:03.165Z,0.36
2022-09-28T05:33:29.642Z,0.41
2022-09-28T05:36:00.805Z,0.30
2022-09-28T05:38:27.621Z,0.34
2022-09-28T05:40:54.143Z,0.37
2022-09-28T05:43:20.521Z,0.42
2022-09-28T05:45:49.347Z,0.56
2022-09-28T05:48:18.199Z,0.49
2022-09-28T05:50:44.553Z,0.48
2022-09-28T05:53:10.888Z,0.50
2022-09-28T05:55:37.402Z,0.43
2022-09-28T05:58:03.770Z,0.46
2022-09-28T06:00:30.121Z,0.47
2022-09-28T06:02:56.479Z,0.54
2022-09-28T06:05:22.829Z,0.45
2022-09-28T06:07:49.189Z,0.39
2022-09-28T06:10:15.581Z,0.45
2022-09-28T06:12:41.927Z,0.39
2022-09-28T06:15:08.289Z,0.37
2022-09-28T06:17:34.768Z,0.37
2022-09-28T06:20:01.127Z,0.32
2022-09-28T06:22:27.486Z,0.38
2022-09-28T06:24:53.877Z,0.35
2022-09-28T06:27:20.284Z,0.50
2022-09-28T06:29:46.648Z,0.34
2022-09-28T06:32:13.003Z,0.40
2022-09-28T06:34:39.329Z,0.35
2022-09-28T06:37:05.688Z,0.48
2022-09-28T06:39:32.057Z,0.60
2022-09-28T06:41:58.432Z,0.49
2022-09-28T06:44:24.824Z,0.51
2022-09-28T06:46:51.198Z,0.60
2022-09-28T06:49:19.584Z,0.42
2022-09-28T06:51:46.098Z,0.53
2022-09-28T06:54:13.628Z,0.48
2022-09-28T06:56:40.052Z,0.32
2022-09-28T06:59:06.436Z,0.38
2022-09-28T07:01:33.032Z,0.31
2022-09-28T07:03:59.477Z,0.48
2022-09-28T07:06:25.913Z,0.47
2022-09-28T07:09:01.621Z,0.39
2022-09-28T07:11:38.650Z,0.35
2022-09-28T07:14:05.045Z,0.34
2022-09-28T07:16:51.693Z,0.24
2022-09-28T07:19:18.222Z,0.28
2022-09-28T07:21:46.955Z,0.31
2022-09-28T07:24:17.228Z,0.38
2022-09-28T07:26:44.006Z,0.29
2022-09-28T07:29:10.319Z,0.27
2022-09-28T07:31:36.638Z,0.26
2022-09-28T07:34:03.046Z,0.29
2022-09-28T07:36:29.541Z,0.30
2022-09-28T07:38:56.040Z,0.28
2022-09-28T07:41:22.467Z,0.41
2022-09-28T07:43:48.884Z,0.32
2022-09-28T07:46:15.271Z,0.35
2022-09-28T07:48:41.666Z,0.37
2022-09-28T07:51:07.997Z,0.42
2022-09-28T07:53:34.344Z,0.28
2022-09-28T07:56:00.811Z,0.30
2022-09-28T07:58:27.167Z,0.36
2022-09-28T08:00:53.536Z,0.39
2022-09-28T08:03:19.965Z,0.41
2022-09-28T08:05:46.321Z,0.39
2022-09-28T08:08:12.711Z,0.40
2022-09-28T08:10:40.753Z,0.30
2022-09-28T08:13:09.177Z,0.32
2022-09-28T08:15:35.566Z,0.41
2022-09-28T08:18:02.925Z,0.62
2022-09-28T08:20:29.516Z,0.64
2022-09-28T08:22:55.848Z,0.58
2022-09-28T08:25:22.276Z,0.49
2022-09-28T08:27:48.617Z,0.32
2022-09-28T08:30:14.938Z,0.47
2022-09-28T08:32:41.311Z,0.56
2022-09-28T08:35:07.657Z,0.50
2022-09-28T08:37:34.024Z,0.44
2022-09-28T08:40:00.491Z,0.42
2022-09-28T08:42:26.852Z,0.41
2022-09-28T08:44:53.204Z,0.32
2022-09-28T08:47:19.660Z,0.40
2022-09-28T08:49:46.168Z,0.41
2022-09-28T08:52:12.551Z,0.49
2022-09-28T08:54:38.901Z,0.48
2022-09-28T08:57:05.232Z,0.42
2022-09-28T08:59:31.615Z,0.46
2022-09-28T09:01:58.124Z,0.44
2022-09-28T09:04:24.496Z,0.48
2022-09-28T09:06:50.828Z,0.49
2022-09-28T09:09:17.208Z,0.76
2022-09-28T09:11:43.554Z,0.66
2022-09-28T09:14:09.908Z,0.60
2022-09-28T09:16:36.447Z,0.54
2022-09-28T09:19:02.857Z,0.60
2022-09-28T09:21:29.231Z,0.60
2022-09-28T09:23:55.672Z,0.50
2022-09-28T09:26:25.525Z,0.45
2022-09-28T09:28:52.466Z,0.45
2022-09-28T09:31:22.548Z,0.53
2022-09-28T09:33:49.262Z,0.35
2022-09-28T09:36:15.604Z,0.42
2022-09-28T09:38:42.016Z,0.36
2022-09-28T09:41:08.462Z,0.36
2022-09-28T09:43:34.931Z,0.37
2022-09-28T09:46:01.510Z,0.28
2022-09-28T09:48:27.921Z,0.35
2022-09-28T09:50:54.296Z,0.40
2022-09-28T09:53:20.679Z,0.37
2022-09-28T09:55:47.019Z,0.43
2022-09-28T09:58:13.350Z,0.32
2022-09-28T10:00:39.741Z,0.42
2022-09-28T10:03:06.134Z,0.41
2022-09-28T10:05:32.491Z,0.57
2022-09-28T10:07:58.855Z,0.41
2022-09-28T10:10:25.223Z,0.48
2022-09-28T10:12:51.553Z,0.49
2022-09-28T10:15:18.006Z,0.44
2022-09-28T10:17:44.342Z,0.65
2022-09-28T10:20:10.708Z,0.48
2022-09-28T10:22:37.194Z,0.60
2022-09-28T10:25:03.524Z,0.59
2022-09-28T10:27:29.879Z,0.50
2022-09-28T10:29:56.398Z,0.57
2022-09-28T10:32:22.733Z,0.50
2022-09-28T10:34:50.972Z,0.45
2022-09-28T10:37:17.688Z,0.44
2022-09-28T10:39:44.030Z,0.61
2022-09-28T10:42:10.408Z,0.59
2022-09-28T10:44:36.810Z,0.56
2022-09-28T10:47:03.176Z,0.52
2022-09-28T10:49:29.521Z,0.54
2022-09-28T10:51:56.013Z,0.53
2022-09-28T10:54:22.451Z,0.55
2022-09-28T10:56:48.797Z,0.42
2022-09-28T10:59:15.297Z,0.47
2022-09-28T11:01:41.692Z,0.57
2022-09-28T11:04:08.103Z,0.50
2022-09-28T11:06:34.520Z,0.52
2022-09-28T11:09:00.850Z,0.52
2022-09-28T11:11:27.219Z,0.45
2022-09-28T11:13:53.724Z,0.48
2022-09-28T11:16:20.150Z,0.46
2022-09-28T11:18:46.569Z,0.45
2022-09-28T11:21:13.324Z,0.55
2022-09-28T11:23:39.677Z,0.58
2022-09-28T11:26:06.060Z,0.58
2022-09-28T11:28:32.425Z,0.37
2022-09-28T11:30:58.825Z,0.51
2022-09-28T11:33:25.199Z,0.42
2022-09-28T11:35:51.557Z,0.46
2022-09-28T11:38:17.894Z,0.45
2022-09-28T11:40:44.316Z,0.41
2022-09-28T11:43:12.295Z,0.42
2022-09-28T11:45:40.915Z,0.47
2022-09-28T11:48:07.251Z,0.44
2022-09-28T11:50:33.655Z,0.52
2022-09-28T11:53:00.027Z,0.42
2022-09-28T11:55:26.448Z,0.38
2022-09-28T11:57:52.865Z,0.43
2022-09-28T12:00:19.243Z,0.44
2022-09-28T12:02:45.749Z,0.63
2022-09-28T12:05:14.831Z,0.59
2022-09-28T12:07:43.509Z,0.65
2022-09-28T12:10:09.859Z,0.55
2022-09-28T12:12:36.235Z,0.48
2022-09-28T12:15:02.564Z,0.54
2022-09-28T12:17:28.954Z,0.59
2022-09-28T12:19:55.469Z,0.53
2022-09-28T12:22:21.804Z,0.56
2022-09-28T12:24:48.220Z,0.58
2022-09-28T12:27:14.771Z,0.62
2022-09-28T12:29:41.161Z,0.50
2022-09-28T12:32:07.534Z,0.48
2022-09-28T12:34:33.897Z,0.67
2022-09-28T12:37:00.228Z,0.58
2022-09-28T12:39:46.739Z,0.62
2022-09-28T12:42:14.482Z,0.50
2022-09-28T12:44:40.848Z,0.64
2022-09-28T12:47:07.270Z,0.55
2022-09-28T12:52:20.030Z,0.63
2022-09-28T12:54:46.522Z,0.58
2022-09-28T12:57:12.868Z,0.58
2022-09-28T12:59:39.221Z,0.70
2022-09-28T13:02:05.751Z,0.60
2022-09-28T13:04:32.217Z,0.49
2022-09-28T13:06:58.581Z,0.55
2022-09-28T13:09:24.954Z,0.58
2022-09-28T13:11:51.302Z,0.48
2022-09-28T13:14:17.638Z,0.56
2022-09-28T13:16:44.123Z,0.48
2022-09-28T13:19:10.492Z,0.49
2022-09-28T13:21:36.826Z,0.51
2022-09-28T13:24:20.639Z,0.51
2022-09-28T13:26:49.497Z,0.48
2022-09-28T13:29:15.942Z,0.46
2022-09-28T13:31:42.681Z,0.36
2022-09-28T13:34:09.041Z,0.42
2022-09-28T13:36:35.407Z,0.47
2022-09-28T13:39:01.728Z,0.50
2022-09-28T13:41:28.082Z,0.40
2022-09-28T13:43:54.516Z,0.40
2022-09-28T13:46:20.905Z,0.47
2022-09-28T13:48:47.297Z,0.41
2022-09-28T13:51:13.701Z,0.42
2022-09-28T13:53:40.098Z,0.40
2022-09-28T13:56:06.458Z,0.33
2022-09-28T13:58:32.890Z,0.41
2022-09-28T14:00:59.397Z,0.44
2022-09-28T14:03:25.805Z,0.46
2022-09-28T14:05:52.212Z,0.37
2022-09-28T14:08:18.534Z,0.39
2022-09-28T14:10:44.905Z,0.40
2022-09-28T14:13:11.800Z,0.42
2022-09-28T14:15:38.166Z,0.40
2022-09-28T14:18:04.520Z,0.45
2022-09-28T14:20:30.918Z,0.52
2022-09-28T14:22:57.264Z,0.57
2022-09-28T14:25:23.611Z,0.38
2022-09-28T14:27:49.993Z,0.52
2022-09-28T14:30:16.376Z,0.54
2022-09-28T14:32:42.771Z,0.45
2022-09-28T14:35:09.165Z,0.42
2022-09-28T14:37:35.541Z,0.46
2022-09-28T14:40:01.914Z,0.44
2022-09-28T14:42:28.331Z,0.38
2022-09-28T14:44:54.680Z,0.43
2022-09-28T14:47:21.009Z,0.42
2022-09-28T14:49:47.363Z,0.46
2022-09-28T14:52:13.719Z,0.47
2022-09-28T14:54:40.064Z,0.47
2022-09-28T14:57:06.451Z,0.45
2022-09-28T14:59:32.786Z,0.42
2022-09-28T15:01:59.140Z,0.43
2022-09-28T15:04:25.650Z,0.47
2022-09-28T15:06:52.071Z,0.43
2022-09-28T15:09:19.529Z,0.42
2022-09-28T15:11:45.942Z,0.45
2022-09-28T15:14:12.284Z,0.65
2022-09-28T15:16:38.619Z,0.58
2022-09-28T15:19:04.988Z,0.54
2022-09-28T15:21:31.329Z,0.49
2022-09-28T15:23:57.726Z,0.52
2022-09-28T15:26:24.084Z,0.58
2022-09-28T15:28:50.430Z,0.65
2022-09-28T15:31:16.848Z,0.63
2022-09-28T15:33:43.403Z,0.54
2022-09-28T15:36:09.731Z,0.58
2022-09-28T15:38:36.080Z,0.68
2022-09-28T15:41:02.500Z,0.61
2022-09-28T15:43:28.894Z,0.60
2022-09-28T15:45:55.288Z,0.55
2022-09-28T15:48:21.789Z,0.83
2022-09-28T15:50:48.133Z,0.68
2022-09-28T15:53:14.492Z,0.66
2022-09-28T15:55:40.851Z,0.71
2022-09-28T15:58:07.194Z,0.74
2022-09-28T16:00:33.568Z,0.71
2022-09-28T16:03:00.071Z,0.78
2022-09-28T16:05:26.534Z,0.72
2022-09-28T16:07:56.136Z,0.70
2022-09-28T16:10:22.830Z,0.75
2022-09-28T16:12:49.181Z,0.63
2022-09-28T16:15:15.526Z,0.96
2022-09-28T16:17:41.905Z,0.89
2022-09-28T16:20:08.257Z,0.96
2022-09-28T16:22:34.593Z,1.02
2022-09-28T16:25:00.957Z,1.13
2022-09-28T16:27:27.341Z,1.25
2022-09-28T16:29:53.692Z,1.40
2022-09-28T16:32:20.174Z,1.21
2022-09-28T16:34:46.529Z,0.92
2022-09-28T16:37:12.855Z,1.12
2022-09-28T16:39:39.349Z,1.05
2022-09-28T16:42:05.738Z,0.95
2022-09-28T16:44:32.117Z,1.38
2022-09-28T16:46:58.490Z,1.42
2022-09-28T16:49:24.881Z,1.14
2022-09-28T16:51:51.237Z,1.24
2022-09-28T16:54:17.683Z,1.15
2022-09-28T16:56:44.026Z,1.11
2022-09-28T16:59:13.614Z,0.99
2022-09-28T17:01:40.422Z,0.97
2022-09-28T17:04:06.846Z,1.15
2022-09-28T17:06:33.368Z,0.91
2022-09-28T17:08:59.772Z,0.97
2022-09-28T17:11:26.110Z,1.01
2022-09-28T17:13:52.461Z,0.92
2022-09-28T17:16:18.902Z,1.05
2022-09-28T17:18:45.282Z,1.06
2022-09-28T17:21:11.664Z,1.12
2022-09-28T17:23:38.147Z,1.24
2022-09-28T17:26:04.488Z,1.18
2022-09-28T17:28:30.818Z,1.19
2022-09-28T17:30:57.340Z,1.10
2022-09-28T17:33:23.738Z,1.36
2022-09-28T17:35:50.135Z,1.20
2022-09-28T17:38:16.623Z,1.20
2022-09-28T17:40:43.090Z,1.09
2022-09-28T17:43:09.480Z,1.19
2022-09-28T17:45:35.951Z,1.37
2022-09-28T17:48:02.279Z,1.35
2022-09-28T17:50:28.616Z,1.35
2022-09-28T17:52:55.074Z,1.25
2022-09-28T17:55:21.438Z,1.31
2022-09-28T17:57:47.784Z,1.36
2022-09-28T18:00:14.153Z,1.30
2022-09-28T18:02:40.555Z,1.36
2022-09-28T18:05:06.932Z,1.14
2022-09-28T18:07:33.332Z,1.36
2022-09-28T18:09:59.716Z,1.38
2022-09-28T18:12:26.065Z,1.48
2022-09-28T18:14:52.585Z,1.38
2022-09-28T18:17:18.953Z,1.13
2022-09-28T18:19:45.295Z,1.22
2022-09-28T18:22:11.661Z,1.20
2022-09-28T18:24:37.993Z,1.12
2022-09-28T18:27:04.351Z,1.28
2022-09-28T18:29:33.343Z,1.16
2022-09-28T18:32:00.042Z,1.13
2022-09-28T18:34:26.385Z,1.13
2022-09-28T18:36:52.856Z,1.03
2022-09-28T18:39:19.265Z,1.04
2022-09-28T18:41:45.666Z,1.05
2022-09-28T18:44:12.126Z,0.99
2022-09-28T18:46:38.553Z,1.04
2022-09-28T18:49:07.346Z,1.15
2022-09-28T18:51:33.769Z,1.22
2022-09-28T18:54:00.128Z,1.26
2022-09-28T18:56:26.462Z,1.08
2022-09-28T18:58:52.822Z,0.85
2022-09-28T19:01:29.921Z,1.12
2022-09-28T19:03:56.693Z,0.98
2022-09-28T19:06:23.048Z,1.04
2022-09-28T19:08:49.457Z,1.10
2022-09-28T19:11:15.825Z,0.83
2022-09-28T19:13:42.172Z,1.04
2022-09-28T19:16:08.552Z,0.96
2022-09-28T19:18:34.983Z,1.04
2022-09-28T19:21:01.335Z,1.03
2022-09-28T19:23:27.697Z,1.02
2022-09-28T19:25:54.080Z,0.90
2022-09-28T19:28:20.431Z,1.05
2022-09-28T19:30:46.858Z,0.96
2022-09-28T19:33:13.384Z,0.87
2022-09-28T19:35:39.742Z,0.93
2022-09-28T19:38:06.087Z,1.01
2022-09-28T19:40:32.481Z,1.05
2022-09-28T19:42:58.817Z,1.09
2022-09-28T19:45:25.184Z,1.16
2022-09-28T19:47:52.242Z,0.93
2022-09-28T19:50:20.535Z,0.86
2022-09-28T19:52:46.881Z,0.93
2022-09-28T19:55:13.384Z,0.85
2022-09-28T19:57:39.750Z,0.90
2022-09-28T20:00:06.202Z,0.88
2022-09-28T20:02:32.721Z,1.03
2022-09-28T20:04:59.191Z,0.96
2022-09-28T20:07:25.528Z,0.96
2022-09-28T20:09:51.995Z,0.88
2022-09-28T20:12:18.318Z,0.82
2022-09-28T20:14:44.666Z,0.81
2022-09-28T20:17:11.033Z,0.81
2022-09-28T20:19:37.357Z,0.85
2022-09-28T20:22:03.713Z,0.85
2022-09-28T20:24:30.093Z,0.75
2022-09-28T20:26:56.445Z,0.83
2022-09-28T20:29:28.238Z,0.78
2022-09-28T20:31:54.594Z,0.82
2022-09-28T20:34:20.942Z,1.02
2022-09-28T20:36:47.279Z,1.00
2022-09-28T20:39:13.756Z,0.77
2022-09-28T20:41:40.126Z,0.82
2022-09-28T20:44:06.816Z,0.86
2022-09-28T20:46:34.402Z,0.84
2022-09-28T20:49:00.819Z,0.84
2022-09-28T20:51:27.179Z,0.83
2022-09-28T20:53:53.632Z,0.89
2022-09-28T20:56:19.983Z,0.91
2022-09-28T20:58:46.333Z,0.93
2022-09-28T21:01:12.725Z,0.80
2022-09-28T21:03:39.063Z,0.72
2022-09-28T21:06:10.054Z,0.88
2022-09-28T21:08:38.447Z,0.78
2022-09-28T21:11:04.785Z,0.80
2022-09-28T21:13:31.118Z,0.94
2022-09-28T21:15:57.768Z,0.81
2022-09-28T21:18:24.231Z,0.86
2022-09-28T21:20:50.610Z,0.94
2022-09-28T21:23:18.253Z,0.77
2022-09-28T21:25:45.994Z,0.86
2022-09-28T21:28:12.337Z,0.88
2022-09-28T21:30:38.720Z,0.84
2022-09-28T21:33:05.080Z,0.82
2022-09-28T21:35:31.412Z,0.88
2022-09-28T21:37:57.781Z,0.76
2022-09-28T21:40:24.157Z,0.73
2022-09-28T21:42:50.577Z,0.70
2022-09-28T21:45:16.941Z,0.78
2022-09-28T21:47:43.293Z,0.77
2022-09-28T21:50:09.625Z,0.78
2022-09-28T21:52:36.025Z,0.67
2022-09-28T21:55:02.374Z,0.67
2022-09-28T21:57:28.712Z,0.70
2022-09-28T21:59:55.197Z,0.76
2022-09-28T22:02:21.609Z,0.79
2022-09-28T22:04:47.974Z,0.72
2022-09-28T22:07:14.417Z,0.77
2022-09-28T22:09:40.751Z,0.70
2022-09-28T22:12:07.086Z,0.77
2022-09-28T22:14:33.477Z,0.88
2022-09-28T22:16:59.817Z,0.74
2022-09-28T22:19:31.606Z,0.67
2022-09-28T22:21:57.977Z,0.78
2022-09-28T22:24:24.301Z,0.69
2022-09-28T22:26:50.648Z,0.66
2022-09-28T22:29:17.136Z,0.67
2022-09-28T22:31:43.499Z,0.74
2022-09-28T22:34:09.901Z,0.72
2022-09-28T22:36:36.273Z,0.67
2022-09-28T22:39:02.646Z,0.67
2022-09-28T22:41:29.003Z,0.75
2022-09-28T22:43:55.450Z,0.77
2022-09-28T22:46:21.815Z,0.71
2022-09-28T22:48:48.410Z,0.62
2022-09-28T22:51:14.770Z,0.61
2022-09-28T22:53:41.109Z,0.68
2022-09-28T22:56:07.459Z,0.70
2022-09-28T22:58:33.823Z,0.84
2022-09-28T23:01:00.200Z,0.65
2022-09-28T23:03:26.551Z,0.73
2022-09-28T23:05:53.061Z,0.56
2022-09-28T23:08:19.446Z,0.65
2022-09-28T23:10:45.774Z,0.64
2022-09-28T23:13:12.213Z,0.76
2022-09-28T23:15:38.599Z,0.56
2022-09-28T23:18:04.956Z,0.64
2022-09-28T23:20:31.377Z,0.61
2022-09-28T23:22:57.729Z,0.63
2022-09-28T23:25:24.084Z,0.51
2022-09-28T23:27:50.457Z,0.58
2022-09-28T23:30:16.839Z,0.66
2022-09-28T23:32:43.199Z,0.53
2022-09-28T23:35:09.567Z,0.67
2022-09-28T23:37:36.079Z,0.67
2022-09-28T23:40:02.428Z,0.58
2022-09-28T23:42:28.885Z,0.60
2022-09-28T23:44:55.243Z,0.63
2022-09-28T23:47:21.587Z,0.62
2022-09-28T23:49:48.097Z,0.61
2022-09-28T23:52:14.459Z,0.63
2022-09-28T23:54:40.800Z,0.64
2022-09-28T23:57:07.242Z,0.61
2022-09-28T23:59:33.572Z,0.59
